sensor_id;sensor_type;location;lat;lon;timestamp;P1;durP1;ratioP1;P2;durP2;ratioP2
20928;SDS011;21895;47.072;15.132;2022-07-04T00:00:14;6.30;;;5.28;;
20928;SDS011;21895;47.072;15.132;2022-07-04T00:02:43;7.43;;;5.22;;
20928;SDS011;21895;47.072;15.132;2022-07-04T00:05:11;8.57;;;5.50;;
20928;SDS011;21895;47.072;15.132;2022-07-04T00:07:39;6.05;;;5.05;;
20928;SDS011;21895;47.072;15.132;2022-07-04T00:10:10;9.65;;;5.72;;
20928;SDS011;21895;47.072;15.132;2022-07-04T00:12:39;8.60;;;5.45;;
20928;SDS011;21895;47.072;15.132;2022-07-04T00:15:07;7.85;;;5.45;;
20928;SDS011;21895;47.072;15.132;2022-07-04T00:17:35;8.75;;;5.30;;
20928;SDS011;21895;47.072;15.132;2022-07-04T00:20:03;7.25;;;4.68;;
20928;SDS011;21895;47.072;15.132;2022-07-04T00:22:32;6.97;;;4.97;;
20928;SDS011;21895;47.072;15.132;2022-07-04T00:24:59;8.25;;;5.25;;
20928;SDS011;21895;47.072;15.132;2022-07-04T00:27:25;6.95;;;5.30;;
20928;SDS011;21895;47.072;15.132;2022-07-04T00:29:52;11.77;;;5.60;;
20928;SDS011;21895;47.072;15.132;2022-07-04T00:32:19;6.80;;;5.47;;
20928;SDS011;21895;47.072;15.132;2022-07-04T00:34:45;12.02;;;5.97;;
20928;SDS011;21895;47.072;15.132;2022-07-04T00:37:13;9.07;;;5.30;;
20928;SDS011;21895;47.072;15.132;2022-07-04T00:39:39;6.90;;;5.55;;
20928;SDS011;21895;47.072;15.132;2022-07-04T00:42:07;6.70;;;5.43;;
20928;SDS011;21895;47.072;15.132;2022-07-04T00:44:34;7.50;;;5.40;;
20928;SDS011;21895;47.072;15.132;2022-07-04T00:47:03;9.60;;;5.15;;
20928;SDS011;21895;47.072;15.132;2022-07-04T00:49:32;14.52;;;5.85;;
20928;SDS011;21895;47.072;15.132;2022-07-04T00:51:59;5.85;;;5.20;;
20928;SDS011;21895;47.072;15.132;2022-07-04T00:54:27;6.47;;;4.90;;
20928;SDS011;21895;47.072;15.132;2022-07-04T00:56:57;6.15;;;4.72;;
20928;SDS011;21895;47.072;15.132;2022-07-04T00:59:25;11.15;;;5.75;;
20928;SDS011;21895;47.072;15.132;2022-07-04T01:01:52;5.85;;;4.85;;
20928;SDS011;21895;47.072;15.132;2022-07-04T01:04:19;7.30;;;4.72;;
20928;SDS011;21895;47.072;15.132;2022-07-04T01:06:45;6.75;;;5.20;;
20928;SDS011;21895;47.072;15.132;2022-07-04T01:09:12;12.30;;;5.35;;
20928;SDS011;21895;47.072;15.132;2022-07-04T01:11:39;6.35;;;5.53;;
20928;SDS011;21895;47.072;15.132;2022-07-04T01:14:06;9.18;;;5.60;;
20928;SDS011;21895;47.072;15.132;2022-07-04T01:16:33;6.62;;;5.37;;
20928;SDS011;21895;47.072;15.132;2022-07-04T01:18:59;7.50;;;5.35;;
20928;SDS011;21895;47.072;15.132;2022-07-04T01:21:26;11.50;;;5.43;;
20928;SDS011;21895;47.072;15.132;2022-07-04T01:23:53;10.10;;;5.25;;
20928;SDS011;21895;47.072;15.132;2022-07-04T01:26:19;8.10;;;5.07;;
20928;SDS011;21895;47.072;15.132;2022-07-04T01:28:48;5.25;;;4.70;;
20928;SDS011;21895;47.072;15.132;2022-07-04T01:31:14;7.10;;;4.97;;
20928;SDS011;21895;47.072;15.132;2022-07-04T01:33:41;6.78;;;5.22;;
20928;SDS011;21895;47.072;15.132;2022-07-04T01:36:08;5.93;;;5.32;;
20928;SDS011;21895;47.072;15.132;2022-07-04T01:38:34;9.63;;;5.30;;
20928;SDS011;21895;47.072;15.132;2022-07-04T01:41:01;7.18;;;5.40;;
20928;SDS011;21895;47.072;15.132;2022-07-04T01:43:27;7.15;;;5.25;;
20928;SDS011;21895;47.072;15.132;2022-07-04T01:45:54;8.30;;;5.10;;
20928;SDS011;21895;47.072;15.132;2022-07-04T01:48:20;6.60;;;5.30;;
20928;SDS011;21895;47.072;15.132;2022-07-04T01:50:47;8.60;;;5.47;;
20928;SDS011;21895;47.072;15.132;2022-07-04T01:53:13;10.43;;;4.85;;
20928;SDS011;21895;47.072;15.132;2022-07-04T01:55:40;8.30;;;4.80;;
20928;SDS011;21895;47.072;15.132;2022-07-04T01:58:06;5.78;;;4.60;;
20928;SDS011;21895;47.072;15.132;2022-07-04T02:00:33;7.37;;;4.65;;
20928;SDS011;21895;47.072;15.132;2022-07-04T02:03:18;7.53;;;5.00;;
20928;SDS011;21895;47.072;15.132;2022-07-04T02:05:44;6.62;;;4.93;;
20928;SDS011;21895;47.072;15.132;2022-07-04T02:08:11;7.25;;;4.90;;
20928;SDS011;21895;47.072;15.132;2022-07-04T02:10:37;6.03;;;4.47;;
20928;SDS011;21895;47.072;15.132;2022-07-04T02:13:04;7.80;;;5.65;;
20928;SDS011;21895;47.072;15.132;2022-07-04T02:15:32;6.65;;;5.00;;
20928;SDS011;21895;47.072;15.132;2022-07-04T02:18:01;6.78;;;4.82;;
20928;SDS011;21895;47.072;15.132;2022-07-04T02:20:30;6.65;;;4.60;;
20928;SDS011;21895;47.072;15.132;2022-07-04T02:22:58;9.18;;;5.37;;
20928;SDS011;21895;47.072;15.132;2022-07-04T02:25:25;8.63;;;5.05;;
20928;SDS011;21895;47.072;15.132;2022-07-04T02:27:51;7.10;;;4.70;;
20928;SDS011;21895;47.072;15.132;2022-07-04T02:30:18;9.05;;;4.47;;
20928;SDS011;21895;47.072;15.132;2022-07-04T02:32:45;8.70;;;4.60;;
20928;SDS011;21895;47.072;15.132;2022-07-04T02:35:11;9.98;;;4.30;;
20928;SDS011;21895;47.072;15.132;2022-07-04T02:37:38;8.15;;;4.85;;
20928;SDS011;21895;47.072;15.132;2022-07-04T02:40:06;5.65;;;4.80;;
20928;SDS011;21895;47.072;15.132;2022-07-04T02:42:33;4.90;;;4.40;;
20928;SDS011;21895;47.072;15.132;2022-07-04T02:45:02;6.37;;;4.45;;
20928;SDS011;21895;47.072;15.132;2022-07-04T02:47:30;6.57;;;5.00;;
20928;SDS011;21895;47.072;15.132;2022-07-04T02:49:56;5.75;;;5.12;;
20928;SDS011;21895;47.072;15.132;2022-07-04T02:52:23;5.43;;;4.57;;
20928;SDS011;21895;47.072;15.132;2022-07-04T02:54:49;6.47;;;5.00;;
20928;SDS011;21895;47.072;15.132;2022-07-04T02:57:18;6.55;;;5.05;;
20928;SDS011;21895;47.072;15.132;2022-07-04T02:59:44;8.18;;;5.50;;
20928;SDS011;21895;47.072;15.132;2022-07-04T03:02:11;6.22;;;4.97;;
20928;SDS011;21895;47.072;15.132;2022-07-04T03:04:38;5.80;;;4.85;;
20928;SDS011;21895;47.072;15.132;2022-07-04T03:07:06;7.93;;;5.10;;
20928;SDS011;21895;47.072;15.132;2022-07-04T03:09:33;5.97;;;4.85;;
20928;SDS011;21895;47.072;15.132;2022-07-04T03:12:00;8.52;;;4.90;;
20928;SDS011;21895;47.072;15.132;2022-07-04T03:14:27;11.77;;;5.20;;
20928;SDS011;21895;47.072;15.132;2022-07-04T03:16:53;5.40;;;4.75;;
20928;SDS011;21895;47.072;15.132;2022-07-04T03:19:20;6.22;;;4.80;;
20928;SDS011;21895;47.072;15.132;2022-07-04T03:21:46;8.20;;;4.93;;
20928;SDS011;21895;47.072;15.132;2022-07-04T03:24:13;6.87;;;4.70;;
20928;SDS011;21895;47.072;15.132;2022-07-04T03:26:39;6.85;;;4.47;;
20928;SDS011;21895;47.072;15.132;2022-07-04T03:29:06;7.93;;;5.40;;
20928;SDS011;21895;47.072;15.132;2022-07-04T03:31:33;9.27;;;5.53;;
20928;SDS011;21895;47.072;15.132;2022-07-04T03:33:59;5.47;;;4.97;;
20928;SDS011;21895;47.072;15.132;2022-07-04T03:36:26;7.78;;;4.45;;
20928;SDS011;21895;47.072;15.132;2022-07-04T03:38:52;9.43;;;4.85;;
20928;SDS011;21895;47.072;15.132;2022-07-04T03:41:19;6.45;;;5.35;;
20928;SDS011;21895;47.072;15.132;2022-07-04T03:43:45;9.85;;;5.50;;
20928;SDS011;21895;47.072;15.132;2022-07-04T03:46:12;5.93;;;4.78;;
20928;SDS011;21895;47.072;15.132;2022-07-04T03:48:38;6.75;;;5.12;;
20928;SDS011;21895;47.072;15.132;2022-07-04T03:51:06;8.98;;;4.47;;
20928;SDS011;21895;47.072;15.132;2022-07-04T03:53:32;5.37;;;4.22;;
20928;SDS011;21895;47.072;15.132;2022-07-04T03:55:59;10.20;;;5.18;;
20928;SDS011;21895;47.072;15.132;2022-07-04T03:58:25;6.93;;;4.93;;
20928;SDS011;21895;47.072;15.132;2022-07-04T04:00:52;8.90;;;4.35;;
20928;SDS011;21895;47.072;15.132;2022-07-04T04:03:19;6.55;;;4.40;;
20928;SDS011;21895;47.072;15.132;2022-07-04T04:06:04;10.93;;;4.62;;
20928;SDS011;21895;47.072;15.132;2022-07-04T04:08:30;11.12;;;4.75;;
20928;SDS011;21895;47.072;15.132;2022-07-04T04:10:57;10.52;;;4.50;;
20928;SDS011;21895;47.072;15.132;2022-07-04T04:13:23;7.55;;;4.80;;
20928;SDS011;21895;47.072;15.132;2022-07-04T04:15:50;6.15;;;4.30;;
20928;SDS011;21895;47.072;15.132;2022-07-04T04:18:16;10.93;;;4.68;;
20928;SDS011;21895;47.072;15.132;2022-07-04T04:20:43;7.60;;;4.45;;
20928;SDS011;21895;47.072;15.132;2022-07-04T04:23:09;6.60;;;4.57;;
20928;SDS011;21895;47.072;15.132;2022-07-04T04:25:36;5.95;;;4.53;;
20928;SDS011;21895;47.072;15.132;2022-07-04T04:28:03;7.30;;;4.57;;
20928;SDS011;21895;47.072;15.132;2022-07-04T04:30:29;7.87;;;4.60;;
20928;SDS011;21895;47.072;15.132;2022-07-04T04:32:56;7.32;;;4.60;;
20928;SDS011;21895;47.072;15.132;2022-07-04T04:35:23;5.30;;;4.80;;
20928;SDS011;21895;47.072;15.132;2022-07-04T04:37:49;6.07;;;4.85;;
20928;SDS011;21895;47.072;15.132;2022-07-04T04:40:16;5.03;;;4.50;;
20928;SDS011;21895;47.072;15.132;2022-07-04T04:42:42;6.97;;;4.78;;
20928;SDS011;21895;47.072;15.132;2022-07-04T04:45:09;13.68;;;5.03;;
20928;SDS011;21895;47.072;15.132;2022-07-04T04:47:36;8.27;;;4.55;;
20928;SDS011;21895;47.072;15.132;2022-07-04T04:50:03;8.05;;;4.72;;
20928;SDS011;21895;47.072;15.132;2022-07-04T04:52:30;6.43;;;4.95;;
20928;SDS011;21895;47.072;15.132;2022-07-04T04:54:56;5.47;;;4.80;;
20928;SDS011;21895;47.072;15.132;2022-07-04T04:57:23;9.05;;;4.30;;
20928;SDS011;21895;47.072;15.132;2022-07-04T04:59:49;5.15;;;4.57;;
20928;SDS011;21895;47.072;15.132;2022-07-04T05:02:20;6.97;;;4.40;;
20928;SDS011;21895;47.072;15.132;2022-07-04T05:04:47;8.63;;;4.72;;
20928;SDS011;21895;47.072;15.132;2022-07-04T05:07:13;8.38;;;4.50;;
20928;SDS011;21895;47.072;15.132;2022-07-04T05:09:40;5.55;;;4.65;;
20928;SDS011;21895;47.072;15.132;2022-07-04T05:12:07;7.20;;;4.55;;
20928;SDS011;21895;47.072;15.132;2022-07-04T05:14:33;8.75;;;4.32;;
20928;SDS011;21895;47.072;15.132;2022-07-04T05:17:00;6.93;;;4.40;;
20928;SDS011;21895;47.072;15.132;2022-07-04T05:19:27;6.55;;;4.60;;
20928;SDS011;21895;47.072;15.132;2022-07-04T05:21:54;6.47;;;4.20;;
20928;SDS011;21895;47.072;15.132;2022-07-04T05:24:21;7.55;;;4.30;;
20928;SDS011;21895;47.072;15.132;2022-07-04T05:26:48;4.35;;;3.72;;
20928;SDS011;21895;47.072;15.132;2022-07-04T05:29:14;7.72;;;4.22;;
20928;SDS011;21895;47.072;15.132;2022-07-04T05:31:42;8.57;;;4.00;;
20928;SDS011;21895;47.072;15.132;2022-07-04T05:34:08;13.62;;;4.15;;
20928;SDS011;21895;47.072;15.132;2022-07-04T05:36:35;8.82;;;4.22;;
20928;SDS011;21895;47.072;15.132;2022-07-04T05:39:04;4.60;;;3.92;;
20928;SDS011;21895;47.072;15.132;2022-07-04T05:41:31;10.70;;;4.30;;
20928;SDS011;21895;47.072;15.132;2022-07-04T05:43:57;5.05;;;4.37;;
20928;SDS011;21895;47.072;15.132;2022-07-04T05:46:25;5.03;;;3.95;;
20928;SDS011;21895;47.072;15.132;2022-07-04T05:48:52;5.45;;;4.95;;
20928;SDS011;21895;47.072;15.132;2022-07-04T05:51:18;5.15;;;4.20;;
20928;SDS011;21895;47.072;15.132;2022-07-04T05:53:45;6.12;;;4.35;;
20928;SDS011;21895;47.072;15.132;2022-07-04T05:56:12;4.55;;;4.15;;
20928;SDS011;21895;47.072;15.132;2022-07-04T05:58:38;16.30;;;4.35;;
20928;SDS011;21895;47.072;15.132;2022-07-04T06:01:06;8.68;;;4.22;;
20928;SDS011;21895;47.072;15.132;2022-07-04T06:03:36;5.43;;;4.35;;
20928;SDS011;21895;47.072;15.132;2022-07-04T06:06:03;7.50;;;4.45;;
20928;SDS011;21895;47.072;15.132;2022-07-04T06:08:30;7.93;;;4.20;;
20928;SDS011;21895;47.072;15.132;2022-07-04T06:10:57;7.87;;;4.30;;
20928;SDS011;21895;47.072;15.132;2022-07-04T06:13:24;9.38;;;4.18;;
20928;SDS011;21895;47.072;15.132;2022-07-04T06:15:50;7.18;;;4.20;;
20928;SDS011;21895;47.072;15.132;2022-07-04T06:18:17;10.98;;;4.30;;
20928;SDS011;21895;47.072;15.132;2022-07-04T06:20:43;11.23;;;4.62;;
20928;SDS011;21895;47.072;15.132;2022-07-04T06:23:10;5.72;;;4.75;;
20928;SDS011;21895;47.072;15.132;2022-07-04T06:25:36;7.43;;;4.40;;
20928;SDS011;21895;47.072;15.132;2022-07-04T06:28:03;4.87;;;4.18;;
20928;SDS011;21895;47.072;15.132;2022-07-04T06:30:30;7.35;;;4.37;;
20928;SDS011;21895;47.072;15.132;2022-07-04T06:32:57;4.82;;;4.20;;
20928;SDS011;21895;47.072;15.132;2022-07-04T06:35:28;4.40;;;3.72;;
20928;SDS011;21895;47.072;15.132;2022-07-04T06:38:12;6.57;;;4.20;;
20928;SDS011;21895;47.072;15.132;2022-07-04T06:40:54;4.87;;;4.05;;
20928;SDS011;21895;47.072;15.132;2022-07-04T06:43:24;6.03;;;4.60;;
20928;SDS011;21895;47.072;15.132;2022-07-04T06:45:51;5.65;;;4.25;;
20928;SDS011;21895;47.072;15.132;2022-07-04T06:48:18;4.50;;;4.07;;
20928;SDS011;21895;47.072;15.132;2022-07-04T06:50:45;8.32;;;4.07;;
20928;SDS011;21895;47.072;15.132;2022-07-04T06:53:12;7.60;;;4.43;;
20928;SDS011;21895;47.072;15.132;2022-07-04T06:55:39;6.37;;;4.40;;
20928;SDS011;21895;47.072;15.132;2022-07-04T06:58:07;5.18;;;4.28;;
20928;SDS011;21895;47.072;15.132;2022-07-04T07:00:35;10.88;;;4.35;;
20928;SDS011;21895;47.072;15.132;2022-07-04T07:03:01;9.63;;;4.40;;
20928;SDS011;21895;47.072;15.132;2022-07-04T07:05:29;7.28;;;4.00;;
20928;SDS011;21895;47.072;15.132;2022-07-04T07:08:24;16.52;;;4.62;;
20928;SDS011;21895;47.072;15.132;2022-07-04T07:10:50;7.62;;;4.28;;
20928;SDS011;21895;47.072;15.132;2022-07-04T07:13:17;7.62;;;4.43;;
20928;SDS011;21895;47.072;15.132;2022-07-04T07:15:44;10.98;;;4.40;;
20928;SDS011;21895;47.072;15.132;2022-07-04T07:18:10;5.70;;;4.37;;
20928;SDS011;21895;47.072;15.132;2022-07-04T07:20:37;8.23;;;4.47;;
20928;SDS011;21895;47.072;15.132;2022-07-04T07:23:04;7.53;;;4.45;;
20928;SDS011;21895;47.072;15.132;2022-07-04T07:25:30;9.25;;;4.15;;
20928;SDS011;21895;47.072;15.132;2022-07-04T07:27:57;5.80;;;4.35;;
20928;SDS011;21895;47.072;15.132;2022-07-04T07:30:24;7.25;;;4.68;;
20928;SDS011;21895;47.072;15.132;2022-07-04T07:32:51;5.37;;;4.47;;
20928;SDS011;21895;47.072;15.132;2022-07-04T07:35:18;9.65;;;5.00;;
20928;SDS011;21895;47.072;15.132;2022-07-04T07:37:44;8.57;;;4.62;;
20928;SDS011;21895;47.072;15.132;2022-07-04T07:40:11;9.00;;;4.50;;
20928;SDS011;21895;47.072;15.132;2022-07-04T07:42:37;6.53;;;4.45;;
20928;SDS011;21895;47.072;15.132;2022-07-04T07:45:04;6.60;;;4.25;;
20928;SDS011;21895;47.072;15.132;2022-07-04T07:47:32;5.28;;;4.75;;
20928;SDS011;21895;47.072;15.132;2022-07-04T07:49:58;9.27;;;5.10;;
20928;SDS011;21895;47.072;15.132;2022-07-04T07:52:25;7.25;;;4.55;;
20928;SDS011;21895;47.072;15.132;2022-07-04T07:54:53;6.65;;;4.37;;
20928;SDS011;21895;47.072;15.132;2022-07-04T07:57:27;7.90;;;5.22;;
20928;SDS011;21895;47.072;15.132;2022-07-04T07:59:55;6.12;;;4.65;;
20928;SDS011;21895;47.072;15.132;2022-07-04T08:02:22;11.55;;;4.60;;
20928;SDS011;21895;47.072;15.132;2022-07-04T08:06:53;8.88;;;4.80;;
20928;SDS011;21895;47.072;15.132;2022-07-04T08:09:47;5.68;;;4.68;;
20928;SDS011;21895;47.072;15.132;2022-07-04T08:12:13;7.68;;;4.78;;
20928;SDS011;21895;47.072;15.132;2022-07-04T08:14:40;7.55;;;4.82;;
20928;SDS011;21895;47.072;15.132;2022-07-04T08:17:07;5.95;;;4.72;;
20928;SDS011;21895;47.072;15.132;2022-07-04T08:19:36;10.60;;;5.15;;
20928;SDS011;21895;47.072;15.132;2022-07-04T08:22:03;7.35;;;4.60;;
20928;SDS011;21895;47.072;15.132;2022-07-04T08:24:42;13.23;;;4.72;;
20928;SDS011;21895;47.072;15.132;2022-07-04T08:27:10;8.60;;;4.60;;
20928;SDS011;21895;47.072;15.132;2022-07-04T08:29:38;10.05;;;4.57;;
20928;SDS011;21895;47.072;15.132;2022-07-04T08:32:05;13.82;;;5.15;;
20928;SDS011;21895;47.072;15.132;2022-07-04T08:34:33;8.40;;;4.65;;
20928;SDS011;21895;47.072;15.132;2022-07-04T08:37:00;7.12;;;4.90;;
20928;SDS011;21895;47.072;15.132;2022-07-04T08:39:27;6.80;;;4.93;;
20928;SDS011;21895;47.072;15.132;2022-07-04T08:41:55;7.12;;;4.60;;
20928;SDS011;21895;47.072;15.132;2022-07-04T08:44:28;7.70;;;5.10;;
20928;SDS011;21895;47.072;15.132;2022-07-04T08:46:55;9.43;;;4.87;;
20928;SDS011;21895;47.072;15.132;2022-07-04T08:49:23;9.23;;;5.05;;
20928;SDS011;21895;47.072;15.132;2022-07-04T08:52:02;8.68;;;4.68;;
20928;SDS011;21895;47.072;15.132;2022-07-04T08:54:32;12.85;;;5.20;;
20928;SDS011;21895;47.072;15.132;2022-07-04T08:57:17;11.07;;;5.05;;
20928;SDS011;21895;47.072;15.132;2022-07-04T09:00:06;6.00;;;4.90;;
20928;SDS011;21895;47.072;15.132;2022-07-04T09:02:33;7.45;;;4.80;;
20928;SDS011;21895;47.072;15.132;2022-07-04T09:05:03;9.48;;;5.00;;
20928;SDS011;21895;47.072;15.132;2022-07-04T09:07:31;5.78;;;4.45;;
20928;SDS011;21895;47.072;15.132;2022-07-04T09:09:58;5.55;;;4.45;;
20928;SDS011;21895;47.072;15.132;2022-07-04T09:12:29;7.05;;;4.47;;
20928;SDS011;21895;47.072;15.132;2022-07-04T09:15:08;11.48;;;4.10;;
20928;SDS011;21895;47.072;15.132;2022-07-04T09:17:35;6.95;;;4.20;;
20928;SDS011;21895;47.072;15.132;2022-07-04T09:20:12;6.95;;;4.55;;
20928;SDS011;21895;47.072;15.132;2022-07-04T09:22:47;7.22;;;5.07;;
20928;SDS011;21895;47.072;15.132;2022-07-04T09:25:16;5.78;;;5.18;;
20928;SDS011;21895;47.072;15.132;2022-07-04T09:27:46;6.32;;;4.70;;
20928;SDS011;21895;47.072;15.132;2022-07-04T09:30:19;9.90;;;5.50;;
20928;SDS011;21895;47.072;15.132;2022-07-04T09:32:55;7.87;;;5.03;;
20928;SDS011;21895;47.072;15.132;2022-07-04T09:35:27;5.60;;;4.47;;
20928;SDS011;21895;47.072;15.132;2022-07-04T09:37:59;8.18;;;4.57;;
20928;SDS011;21895;47.072;15.132;2022-07-04T09:40:34;7.18;;;4.80;;
20928;SDS011;21895;47.072;15.132;2022-07-04T09:44:29;5.80;;;4.30;;
20928;SDS011;21895;47.072;15.132;2022-07-04T09:47:21;8.18;;;4.62;;
20928;SDS011;21895;47.072;15.132;2022-07-04T09:50:02;6.00;;;3.70;;
20928;SDS011;21895;47.072;15.132;2022-07-04T09:53:01;5.53;;;4.18;;
20928;SDS011;21895;47.072;15.132;2022-07-04T09:55:34;16.20;;;3.97;;
20928;SDS011;21895;47.072;15.132;2022-07-04T09:58:04;8.70;;;3.95;;
20928;SDS011;21895;47.072;15.132;2022-07-04T10:00:34;7.25;;;4.28;;
20928;SDS011;21895;47.072;15.132;2022-07-04T10:03:19;12.15;;;4.10;;
20928;SDS011;21895;47.072;15.132;2022-07-04T10:06:09;6.00;;;4.15;;
20928;SDS011;21895;47.072;15.132;2022-07-04T10:08:38;4.72;;;4.15;;
20928;SDS011;21895;47.072;15.132;2022-07-04T10:11:07;6.18;;;3.92;;
20928;SDS011;21895;47.072;15.132;2022-07-04T10:13:39;6.72;;;4.32;;
20928;SDS011;21895;47.072;15.132;2022-07-04T10:16:06;6.72;;;4.35;;
20928;SDS011;21895;47.072;15.132;2022-07-04T10:18:33;5.97;;;4.35;;
20928;SDS011;21895;47.072;15.132;2022-07-04T10:21:00;8.15;;;4.82;;
20928;SDS011;21895;47.072;15.132;2022-07-04T10:23:27;11.40;;;4.53;;
20928;SDS011;21895;47.072;15.132;2022-07-04T10:25:57;10.85;;;4.78;;
20928;SDS011;21895;47.072;15.132;2022-07-04T10:28:24;6.18;;;4.90;;
20928;SDS011;21895;47.072;15.132;2022-07-04T10:30:52;9.20;;;4.53;;
20928;SDS011;21895;47.072;15.132;2022-07-04T10:33:26;7.85;;;5.07;;
20928;SDS011;21895;47.072;15.132;2022-07-04T10:36:02;10.82;;;5.28;;
20928;SDS011;21895;47.072;15.132;2022-07-04T10:38:53;6.50;;;4.85;;
20928;SDS011;21895;47.072;15.132;2022-07-04T10:41:25;7.78;;;5.53;;
20928;SDS011;21895;47.072;15.132;2022-07-04T10:43:54;9.50;;;5.10;;
20928;SDS011;21895;47.072;15.132;2022-07-04T10:46:46;7.05;;;5.10;;
20928;SDS011;21895;47.072;15.132;2022-07-04T10:49:20;7.20;;;4.93;;
20928;SDS011;21895;47.072;15.132;2022-07-04T10:51:55;7.82;;;5.05;;
20928;SDS011;21895;47.072;15.132;2022-07-04T10:54:40;5.37;;;4.82;;
20928;SDS011;21895;47.072;15.132;2022-07-04T10:57:26;6.10;;;5.30;;
20928;SDS011;21895;47.072;15.132;2022-07-04T11:02:38;8.05;;;5.00;;
20928;SDS011;21895;47.072;15.132;2022-07-04T11:05:09;7.35;;;4.72;;
20928;SDS011;21895;47.072;15.132;2022-07-04T11:10:30;7.05;;;5.03;;
20928;SDS011;21895;47.072;15.132;2022-07-04T11:13:02;9.77;;;4.82;;
20928;SDS011;21895;47.072;15.132;2022-07-04T11:18:24;6.85;;;5.37;;
20928;SDS011;21895;47.072;15.132;2022-07-04T11:20:54;7.75;;;4.72;;
20928;SDS011;21895;47.072;15.132;2022-07-04T11:23:20;5.25;;;4.53;;
20928;SDS011;21895;47.072;15.132;2022-07-04T11:25:47;6.82;;;4.60;;
20928;SDS011;21895;47.072;15.132;2022-07-04T11:28:26;5.30;;;4.70;;
20928;SDS011;21895;47.072;15.132;2022-07-04T11:31:09;5.68;;;4.50;;
20928;SDS011;21895;47.072;15.132;2022-07-04T11:33:36;5.65;;;4.20;;
20928;SDS011;21895;47.072;15.132;2022-07-04T11:36:05;5.00;;;4.50;;
20928;SDS011;21895;47.072;15.132;2022-07-04T11:38:54;10.25;;;4.53;;
20928;SDS011;21895;47.072;15.132;2022-07-04T11:41:32;4.68;;;3.90;;
20928;SDS011;21895;47.072;15.132;2022-07-04T11:44:23;5.35;;;3.92;;
20928;SDS011;21895;47.072;15.132;2022-07-04T11:47:15;5.15;;;3.90;;
20928;SDS011;21895;47.072;15.132;2022-07-04T11:50:25;5.37;;;3.62;;
20928;SDS011;21895;47.072;15.132;2022-07-04T11:52:51;8.75;;;3.97;;
20928;SDS011;21895;47.072;15.132;2022-07-04T11:55:55;5.85;;;3.92;;
20928;SDS011;21895;47.072;15.132;2022-07-04T11:58:42;7.00;;;3.95;;
20928;SDS011;21895;47.072;15.132;2022-07-04T12:01:09;5.20;;;4.10;;
20928;SDS011;21895;47.072;15.132;2022-07-04T12:03:36;7.85;;;3.95;;
20928;SDS011;21895;47.072;15.132;2022-07-04T12:06:03;4.95;;;4.20;;
20928;SDS011;21895;47.072;15.132;2022-07-04T12:08:41;4.78;;;4.00;;
20928;SDS011;21895;47.072;15.132;2022-07-04T12:11:07;5.25;;;3.58;;
20928;SDS011;21895;47.072;15.132;2022-07-04T12:13:34;4.15;;;3.50;;
20928;SDS011;21895;47.072;15.132;2022-07-04T12:16:00;4.87;;;3.87;;
20928;SDS011;21895;47.072;15.132;2022-07-04T12:18:36;4.72;;;3.97;;
20928;SDS011;21895;47.072;15.132;2022-07-04T12:21:15;5.03;;;3.70;;
20928;SDS011;21895;47.072;15.132;2022-07-04T12:23:54;5.28;;;3.75;;
20928;SDS011;21895;47.072;15.132;2022-07-04T12:26:30;5.43;;;4.00;;
20928;SDS011;21895;47.072;15.132;2022-07-04T12:28:57;4.25;;;3.95;;
20928;SDS011;21895;47.072;15.132;2022-07-04T12:31:40;6.55;;;4.43;;
20928;SDS011;21895;47.072;15.132;2022-07-04T12:34:15;5.62;;;5.05;;
20928;SDS011;21895;47.072;15.132;2022-07-04T12:36:53;7.43;;;5.03;;
20928;SDS011;21895;47.072;15.132;2022-07-04T12:39:31;8.13;;;4.80;;
20928;SDS011;21895;47.072;15.132;2022-07-04T12:45:04;8.84;;;4.94;;
20928;SDS011;21895;47.072;15.132;2022-07-04T12:47:32;6.97;;;5.00;;
20928;SDS011;21895;47.072;15.132;2022-07-04T12:50:10;10.90;;;4.93;;
20928;SDS011;21895;47.072;15.132;2022-07-04T12:52:38;5.68;;;4.60;;
20928;SDS011;21895;47.072;15.132;2022-07-04T12:55:08;5.65;;;5.05;;
20928;SDS011;21895;47.072;15.132;2022-07-04T12:57:36;5.03;;;4.57;;
20928;SDS011;21895;47.072;15.132;2022-07-04T13:00:03;5.32;;;4.70;;
20928;SDS011;21895;47.072;15.132;2022-07-04T13:03:01;6.97;;;4.62;;
20928;SDS011;21895;47.072;15.132;2022-07-04T13:05:29;6.37;;;4.22;;
20928;SDS011;21895;47.072;15.132;2022-07-04T13:07:56;6.05;;;4.62;;
20928;SDS011;21895;47.072;15.132;2022-07-04T13:10:22;6.43;;;4.53;;
20928;SDS011;21895;47.072;15.132;2022-07-04T13:12:49;10.68;;;4.78;;
20928;SDS011;21895;47.072;15.132;2022-07-04T13:15:16;6.03;;;4.50;;
20928;SDS011;21895;47.072;15.132;2022-07-04T13:17:43;4.57;;;4.18;;
20928;SDS011;21895;47.072;15.132;2022-07-04T13:20:10;7.18;;;4.78;;
20928;SDS011;21895;47.072;15.132;2022-07-04T13:22:38;4.90;;;4.40;;
20928;SDS011;21895;47.072;15.132;2022-07-04T13:25:05;16.40;;;4.75;;
20928;SDS011;21895;47.072;15.132;2022-07-04T13:27:32;12.60;;;4.70;;
20928;SDS011;21895;47.072;15.132;2022-07-04T13:30:14;9.28;;;4.49;;
20928;SDS011;21895;47.072;15.132;2022-07-04T13:32:41;11.05;;;4.05;;
20928;SDS011;21895;47.072;15.132;2022-07-04T13:35:07;6.30;;;4.10;;
20928;SDS011;21895;47.072;15.132;2022-07-04T13:37:34;5.05;;;4.03;;
20928;SDS011;21895;47.072;15.132;2022-07-04T13:40:01;8.52;;;4.37;;
20928;SDS011;21895;47.072;15.132;2022-07-04T13:42:27;9.32;;;4.40;;
20928;SDS011;21895;47.072;15.132;2022-07-04T13:45:12;4.68;;;4.25;;
20928;SDS011;21895;47.072;15.132;2022-07-04T13:47:40;5.32;;;4.30;;
20928;SDS011;21895;47.072;15.132;2022-07-04T13:50:07;6.32;;;4.50;;
20928;SDS011;21895;47.072;15.132;2022-07-04T13:52:34;10.50;;;4.60;;
20928;SDS011;21895;47.072;15.132;2022-07-04T13:55:01;8.25;;;4.78;;
20928;SDS011;21895;47.072;15.132;2022-07-04T13:57:27;7.45;;;4.37;;
20928;SDS011;21895;47.072;15.132;2022-07-04T13:59:54;7.53;;;4.90;;
20928;SDS011;21895;47.072;15.132;2022-07-04T14:02:20;6.45;;;4.45;;
20928;SDS011;21895;47.072;15.132;2022-07-04T14:04:47;5.32;;;4.45;;
20928;SDS011;21895;47.072;15.132;2022-07-04T14:07:14;7.28;;;4.65;;
20928;SDS011;21895;47.072;15.132;2022-07-04T14:09:45;6.45;;;4.93;;
20928;SDS011;21895;47.072;15.132;2022-07-04T14:12:13;8.13;;;4.47;;
20928;SDS011;21895;47.072;15.132;2022-07-04T14:14:41;6.57;;;4.93;;
20928;SDS011;21895;47.072;15.132;2022-07-04T14:17:08;7.15;;;4.90;;
20928;SDS011;21895;47.072;15.132;2022-07-04T14:20:00;7.10;;;4.30;;
20928;SDS011;21895;47.072;15.132;2022-07-04T14:22:27;7.40;;;4.80;;
20928;SDS011;21895;47.072;15.132;2022-07-04T14:24:53;6.07;;;4.45;;
20928;SDS011;21895;47.072;15.132;2022-07-04T14:27:20;5.32;;;4.32;;
20928;SDS011;21895;47.072;15.132;2022-07-04T14:29:46;5.65;;;4.40;;
20928;SDS011;21895;47.072;15.132;2022-07-04T14:32:14;11.23;;;4.82;;
20928;SDS011;21895;47.072;15.132;2022-07-04T14:34:40;4.78;;;4.32;;
20928;SDS011;21895;47.072;15.132;2022-07-04T14:37:07;7.57;;;4.37;;
20928;SDS011;21895;47.072;15.132;2022-07-04T14:39:34;8.27;;;4.72;;
20928;SDS011;21895;47.072;15.132;2022-07-04T14:42:00;5.32;;;4.32;;
20928;SDS011;21895;47.072;15.132;2022-07-04T14:44:27;10.52;;;4.57;;
20928;SDS011;21895;47.072;15.132;2022-07-04T14:46:54;4.60;;;4.20;;
20928;SDS011;21895;47.072;15.132;2022-07-04T14:49:20;8.27;;;4.60;;
20928;SDS011;21895;47.072;15.132;2022-07-04T14:51:47;8.18;;;4.78;;
20928;SDS011;21895;47.072;15.132;2022-07-04T14:54:13;10.70;;;4.57;;
20928;SDS011;21895;47.072;15.132;2022-07-04T14:56:40;5.10;;;4.60;;
20928;SDS011;21895;47.072;15.132;2022-07-04T14:59:06;6.25;;;4.60;;
20928;SDS011;21895;47.072;15.132;2022-07-04T15:01:33;7.75;;;4.15;;